Terminal Aerodrome Forecast
Issued by NWS Omaha/Valley, NE

Home | Current Version | Previous Version | Text Only | Print | Product List | Glossary On
Versions: 1 2 3 4 5 6 7 8 9 10 11 12 13 14 15
000
FTUS43 KOAX 302323
TAFOFK
TAF
KOFK 302323Z 3100/3124 13003KT P6SM SCT050 BKN250
     FM310900 00000KT 4SM BR SCT250
      TEMPO 3109/3113 1 1/2SM BR
     FM311500 05005KT P6SM FEW200=

USA.gov is the U.S. government's official web portal to all federal, state and local government web resources and services.